West Brentwood, New York
Current Conditions -  °F | °C
As of 7:56 PM on Monday 20 Oct 2014 (Local Time) from KISP Reporting Station
Broken Clouds Broken Clouds  
Wind Chill: 56°   Ceiling: 26000
Heat Index: 56°   Visibility: 10mi
Dew Point: 43°   Wind: 7mph
Humidity: 62%   Direction: 210°SSW
Pressure: 29.98"   Gusts: NA
Location:  40.7837°N, 73.252°W
Report Text: KISP 202356Z 21006KT 10SM FEW040 SCT150 BKN260 13/06 A2998 RMK AO2 SLP151 T01330061 10150 20128 56002
Loading
Personal Weather Stations






























Interactive Weather Map
Tropical Storm Tracking
New forecast layout! Learn more

10-Day Weather Forecast

Advertisements
Track Severe Weather on mobile